Discovery — 3FII9 — position and weather

sailwx.info

Track history (hours):
 
Tides and Currents Weather Stations Pressure Air Temp Water Temp Dewpoint Dewpoint Depression Visibility Wind Speed Wind Dir Waves Ship Positions

Discovery

Operator: V Ships Leisure SAM

Last reported at 2019-Oct-17 06:30 UTC. Time now 2019-Oct-20 11:22 UTC.
Position N 37°44' W 030°22'.

Length 177 m; draft 10.2 m.

Type: Cargo ship. MMSI: 353389000.

Date/timePositionNaut miles runAvg speedWind from/ knotsBaromVisibWave heightAir tempDewpointWater temp
2019-Oct-17 06:30N 37°44' W 030°22'2112.4
2019-Oct-17 04:46N 37°48' W 029°55'312.0
2019-Oct-17 04:30N 37°48' W 029°51'611.8
2019-Oct-17 04:00N 37°49' W 029°44'611.9
2019-Oct-17 03:30N 37°50' W 029°36'612.1
2019-Oct-17 03:00N 37°51' W 029°29'611.9
2019-Oct-17 02:30N 37°52' W 029°21'611.9
2019-Oct-17 02:00N 37°53' W 029°14'612.0
2019-Oct-17 01:30N 37°54' W 029°06'611.5
2019-Oct-17 01:01N 37°54' W 028°59'612.0
2019-Oct-17 00:30N 37°55' W 028°52'612.4
2019-Oct-17 00:00N 37°56' W 028°44'612.9
2019-Oct-16 23:30N 37°57' W 028°36'612.6
2019-Oct-16 23:00N 37°58' W 028°28'612.4
2019-Oct-16 22:30N 37°59' W 028°20'612.3
2019-Oct-16 22:00N 37°60' W 028°12'612.4
2019-Oct-16 21:30N 38°01' W 028°05'713.1
2019-Oct-16 21:00N 38°01' W 027°56'713.2
2019-Oct-16 20:30N 38°02' W 027°48'713.3
2019-Oct-16 20:00N 38°03' W 027°40'713.5
2019-Oct-16 19:30N 38°03' W 027°31'713.2
2019-Oct-16 19:00N 38°04' W 027°23'612.8
2019-Oct-16 18:30N 38°05' W 027°15'713.2
2019-Oct-16 18:00N 38°05' W 027°06'613.1
2019-Oct-16 17:30N 38°06' W 026°58'612.7
2019-Oct-16 17:00N 38°06' W 026°50'612.8
2019-Oct-16 16:31N 38°06' W 026°42'612.5
2019-Oct-16 16:00N 38°07' W 026°34'612.1
2019-Oct-16 15:31N 38°07' W 026°26'611.7
2019-Oct-16 15:00N 38°08' W 026°19'510.8
2019-Oct-16 14:30N 38°08' W 026°12'510.4
2019-Oct-16 14:01N 38°08' W 026°05'510.3
2019-Oct-16 13:30N 38°08' W 025°59'510.2
2019-Oct-16 13:01N 38°09' W 025°52'510.2
2019-Oct-16 12:31N 38°09' W 025°46'510.0
2019-Oct-16 12:00N 38°10' W 025°39'5 9.9
2019-Oct-16 11:31N 38°10' W 025°33'5 9.9
2019-Oct-16 11:00N 38°10' W 025°27'5 9.8
2019-Oct-16 10:31N 38°10' W 025°21'5 9.9
2019-Oct-16 10:00N 38°11' W 025°14'510.0
2019-Oct-16 09:30N 38°11' W 025°08'510.1
2019-Oct-16 09:00N 38°11' W 025°02'5 9.8
2019-Oct-16 08:31N 38°11' W 024°55'5 9.9
2019-Oct-16 08:01N 38°12' W 024°49'510.4
2019-Oct-16 07:31N 38°12' W 024°42'510.3
2019-Oct-16 07:00N 38°12' W 024°36'510.0
2019-Oct-16 06:31N 38°10' W 024°30'5 9.8
2019-Oct-16 06:01N 38°09' W 024°24'5 9.8
2019-Oct-16 05:31N 38°07' W 024°18'7 9.7
2019-Oct-16 04:47N 38°05' W 024°09'3 9.9
2019-Oct-16 04:30N 38°05' W 024°06'  
2019-Oct-11 16:44N 37°18' E 002°41'413.0
2019-Oct-11 16:24N 37°19' E 002°46'513.0
2019-Oct-11 16:01N 37°20' E 002°53'  
Track history (hours):
 
Tides and Currents Weather Stations Pressure Air Temp Water Temp Dewpoint Dewpoint Depression Visibility Wind Speed Wind Dir Waves Ship Positions

Discovery

Operator: V Ships Leisure SAM

Last reported at 2019-Oct-17 06:30 UTC. Time now 2019-Oct-20 11:22 UTC.
Position N 37°44' W 030°22'.

Length 177 m; draft 10.2 m.

Type: Cargo ship. MMSI: 353389000.

Date/timePositionNaut miles runAvg speedWind from/ knotsBaromVisibWave heightAir tempDewpointWater temp
2019-Oct-17 06:30N 37°44' W 030°22'2112.4
2019-Oct-17 04:46N 37°48' W 029°55'312.0
2019-Oct-17 04:30N 37°48' W 029°51'611.8
2019-Oct-17 04:00N 37°49' W 029°44'611.9
2019-Oct-17 03:30N 37°50' W 029°36'612.1
2019-Oct-17 03:00N 37°51' W 029°29'611.9
2019-Oct-17 02:30N 37°52' W 029°21'611.9
2019-Oct-17 02:00N 37°53' W 029°14'612.0
2019-Oct-17 01:30N 37°54' W 029°06'611.5
2019-Oct-17 01:01N 37°54' W 028°59'612.0
2019-Oct-17 00:30N 37°55' W 028°52'612.4
2019-Oct-17 00:00N 37°56' W 028°44'612.9
2019-Oct-16 23:30N 37°57' W 028°36'612.6
2019-Oct-16 23:00N 37°58' W 028°28'612.4
2019-Oct-16 22:30N 37°59' W 028°20'612.3
2019-Oct-16 22:00N 37°60' W 028°12'612.4
2019-Oct-16 21:30N 38°01' W 028°05'713.1
2019-Oct-16 21:00N 38°01' W 027°56'713.2
2019-Oct-16 20:30N 38°02' W 027°48'713.3
2019-Oct-16 20:00N 38°03' W 027°40'713.5
2019-Oct-16 19:30N 38°03' W 027°31'713.2
2019-Oct-16 19:00N 38°04' W 027°23'612.8
2019-Oct-16 18:30N 38°05' W 027°15'713.2
2019-Oct-16 18:00N 38°05' W 027°06'613.1
2019-Oct-16 17:30N 38°06' W 026°58'612.7
2019-Oct-16 17:00N 38°06' W 026°50'612.8
2019-Oct-16 16:31N 38°06' W 026°42'612.5
2019-Oct-16 16:00N 38°07' W 026°34'612.1
2019-Oct-16 15:31N 38°07' W 026°26'611.7
2019-Oct-16 15:00N 38°08' W 026°19'510.8
2019-Oct-16 14:30N 38°08' W 026°12'510.4
2019-Oct-16 14:01N 38°08' W 026°05'510.3
2019-Oct-16 13:30N 38°08' W 025°59'510.2
2019-Oct-16 13:01N 38°09' W 025°52'510.2
2019-Oct-16 12:31N 38°09' W 025°46'510.0
2019-Oct-16 12:00N 38°10' W 025°39'5 9.9
2019-Oct-16 11:31N 38°10' W 025°33'5 9.9
2019-Oct-16 11:00N 38°10' W 025°27'5 9.8
2019-Oct-16 10:31N 38°10' W 025°21'5 9.9
2019-Oct-16 10:00N 38°11' W 025°14'510.0
2019-Oct-16 09:30N 38°11' W 025°08'510.1
2019-Oct-16 09:00N 38°11' W 025°02'5 9.8
2019-Oct-16 08:31N 38°11' W 024°55'5 9.9
2019-Oct-16 08:01N 38°12' W 024°49'510.4
2019-Oct-16 07:31N 38°12' W 024°42'510.3
2019-Oct-16 07:00N 38°12' W 024°36'510.0
2019-Oct-16 06:31N 38°10' W 024°30'5 9.8
2019-Oct-16 06:01N 38°09' W 024°24'5 9.8
2019-Oct-16 05:31N 38°07' W 024°18'7 9.7
2019-Oct-16 04:47N 38°05' W 024°09'3 9.9
2019-Oct-16 04:30N 38°05' W 024°06'  
2019-Oct-11 16:44N 37°18' E 002°41'413.0
2019-Oct-11 16:24N 37°19' E 002°46'513.0
2019-Oct-11 16:01N 37°20' E 002°53'  

Dump ship's entire track history